Time;durP1;ratioP1;P1;durP2;ratioP2;P2;SDS_P1;SDS_P2;PMS_P1;PMS_P2;Temp;Humidity;BMP_temperature;BMP_pressure;BME280_temperature;BME280_humidity;BME280_pressure;Samples;Min_cycle;Max_cycle;Signal;HPM_P1;HPM_P2
2023/05/19 00:01:36;;;;;;;6.50;2.08;;;;;;;;;;5003975;28;20429;-70
2023/05/19 00:04:02;;;;;;;8.65;2.05;;;;;;;;;;5010346;28;20041;-69
2023/05/19 00:06:30;;;;;;;6.43;2.10;;;;;;;;;;5002139;28;20046;-70
2023/05/19 00:08:56;;;;;;;6.75;2.28;;;;;;;;;;4995703;28;20397;-70
2023/05/19 00:11:22;;;;;;;6.95;2.28;;;;;;;;;;5006174;28;20034;-69
2023/05/19 00:13:49;;;;;;;6.93;2.50;;;;;;;;;;5006988;28;20056;-71
2023/05/19 00:16:15;;;;;;;5.65;2.00;;;;;;;;;;5002938;28;20470;-71
2023/05/19 00:18:40;;;;;;;7.80;2.33;;;;;;;;;;5005361;28;20070;-70
2023/05/19 00:21:06;;;;;;;7.00;2.22;;;;;;;;;;5010971;28;20389;-70
2023/05/19 00:23:31;;;;;;;6.07;2.70;;;;;;;;;;5010829;28;20021;-70
2023/05/19 00:25:56;;;;;;;7.45;2.75;;;;;;;;;;5010492;28;20018;-70
2023/05/19 00:28:21;;;;;;;6.18;2.40;;;;;;;;;;5009723;28;20026;-70
2023/05/19 00:30:46;;;;;;;8.38;2.92;;;;;;;;;;5003547;28;20517;-69
2023/05/19 00:33:11;;;;;;;7.25;3.10;;;;;;;;;;4999203;28;20045;-70
2023/05/19 00:35:36;;;;;;;8.23;3.15;;;;;;;;;;4991255;28;20029;-70
2023/05/19 00:38:01;;;;;;;7.97;3.40;;;;;;;;;;4990783;28;20046;-70
2023/05/19 00:40:28;;;;;;;6.73;2.97;;;;;;;;;;4990741;28;20023;-70
2023/05/19 00:42:53;;;;;;;7.70;3.53;;;;;;;;;;4990885;28;20022;-70
2023/05/19 00:45:18;;;;;;;10.20;3.50;;;;;;;;;;5000274;28;20396;-70
2023/05/19 00:47:44;;;;;;;8.10;3.00;;;;;;;;;;5000377;28;20026;-70
2023/05/19 00:50:09;;;;;;;7.53;3.00;;;;;;;;;;4992317;28;20026;-70
2023/05/19 00:52:34;;;;;;;9.17;3.00;;;;;;;;;;4990673;28;20038;-70
2023/05/19 00:54:59;;;;;;;6.40;2.60;;;;;;;;;;4993376;28;20072;-70
2023/05/19 00:57:25;;;;;;;6.63;2.83;;;;;;;;;;4994524;28;20038;-70
2023/05/19 00:59:51;;;;;;;7.85;2.83;;;;;;;;;;4999846;28;20475;-70
2023/05/19 01:02:16;;;;;;;7.50;3.00;;;;;;;;;;4999149;28;20110;-70
2023/05/19 01:04:42;;;;;;;7.13;2.65;;;;;;;;;;4997340;28;20022;-70
2023/05/19 01:07:09;;;;;;;8.60;2.95;;;;;;;;;;4993338;28;20029;-70
2023/05/19 01:09:34;;;;;;;;;;;;;;;;;;4991316;28;20019;-71
2023/05/19 01:12:00;;;;;;;10.77;2.95;;;;;;;;;;4991107;28;19964;-71
2023/05/19 01:14:25;;;;;;;6.72;2.55;;;;;;;;;;4992169;28;20100;-71
2023/05/19 01:17:04;;;;;;;7.47;2.50;;;;;;;;;;4995323;28;20018;-71
2023/05/19 01:19:45;;;;;;;6.07;2.40;;;;;;;;;;5003619;28;20749;-70
2023/05/19 01:22:21;;;;;;;8.25;2.30;;;;;;;;;;4996576;28;20026;-70
2023/05/19 01:25:02;;;;;;;6.25;2.35;;;;;;;;;;4994496;28;20521;-70
2023/05/19 01:27:48;;;;;;;7.13;2.53;;;;;;;;;;4991539;28;20019;-71
2023/05/19 01:30:18;;;;;;;6.93;2.30;;;;;;;;;;4993596;28;20022;-70
2023/05/19 01:32:44;;;;;;;5.50;2.50;;;;;;;;;;4998321;28;20437;-70
2023/05/19 01:35:11;;;;;;;7.07;2.53;;;;;;;;;;5005021;28;20030;-71
2023/05/19 01:37:37;;;;;;;7.88;2.70;;;;;;;;;;4994356;28;20038;-70
2023/05/19 01:40:02;;;;;;;7.20;2.50;;;;;;;;;;4995101;28;20438;-70
2023/05/19 01:42:28;;;;;;;6.30;2.70;;;;;;;;;;5000756;28;20022;-70
2023/05/19 01:44:54;;;;;;;8.75;3.15;;;;;;;;;;5006182;28;20021;-70
2023/05/19 01:47:19;;;;;;;6.63;2.72;;;;;;;;;;4998427;28;20056;-71
2023/05/19 01:49:44;;;;;;;6.63;2.50;;;;;;;;;;5012524;28;20049;-71
2023/05/19 01:52:09;;;;;;;8.45;2.95;;;;;;;;;;5004117;28;20052;-70
2023/05/19 01:54:35;;;;;;;6.00;2.40;;;;;;;;;;4994020;28;20113;-70
2023/05/19 01:57:19;;;;;;;6.60;2.90;;;;;;;;;;4994198;28;20101;-70
2023/05/19 02:00:05;;;;;;;7.32;2.65;;;;;;;;;;5003195;28;20615;-70
2023/05/19 02:02:42;;;;;;;7.47;2.50;;;;;;;;;;5002246;28;20033;-70
2023/05/19 02:05:28;;;;;;;9.90;3.00;;;;;;;;;;5001878;28;20480;-70
2023/05/19 02:07:57;;;;;;;10.30;3.10;;;;;;;;;;5010238;28;20017;-71
2023/05/19 02:10:29;;;;;;;6.03;2.53;;;;;;;;;;5008250;28;20109;-71
2023/05/19 02:12:57;;;;;;;6.30;3.05;;;;;;;;;;5007157;28;20367;-70
2023/05/19 02:15:28;;;;;;;7.63;2.95;;;;;;;;;;5003124;28;20037;-71
2023/05/19 02:17:54;;;;;;;7.90;2.80;;;;;;;;;;5002955;28;20025;-71
2023/05/19 02:20:20;;;;;;;7.22;2.70;;;;;;;;;;5003165;28;20026;-70
2023/05/19 02:22:46;;;;;;;7.15;2.83;;;;;;;;;;5003614;28;20053;-71
2023/05/19 02:25:11;;;;;;;6.60;2.72;;;;;;;;;;5003959;28;20512;-71
2023/05/19 02:27:37;;;;;;;9.70;3.20;;;;;;;;;;5008205;28;20064;-71
2023/05/19 02:30:02;;;;;;;7.97;3.42;;;;;;;;;;5008584;28;20412;-71
2023/05/19 02:32:28;;;;;;;7.50;2.67;;;;;;;;;;5008883;28;20107;-71
2023/05/19 02:34:55;;;;;;;7.97;2.97;;;;;;;;;;5004137;28;20048;-71
2023/05/19 02:37:22;;;;;;;7.15;2.90;;;;;;;;;;5002787;28;20034;-71
2023/05/19 02:39:48;;;;;;;8.73;2.90;;;;;;;;;;5005587;28;20015;-71
2023/05/19 02:42:16;;;;;;;8.82;3.22;;;;;;;;;;5003271;28;20022;-71
2023/05/19 02:44:41;;;;;;;9.15;3.22;;;;;;;;;;5006390;28;20014;-71
2023/05/19 02:47:06;;;;;;;6.65;2.78;;;;;;;;;;5003975;28;20026;-72
2023/05/19 02:49:34;;;;;;;7.38;2.95;;;;;;;;;;5003655;28;20540;-72
2023/05/19 02:51:59;;;;;;;8.75;3.10;;;;;;;;;;5009185;28;20116;-71
2023/05/19 02:54:25;;;;;;;7.47;3.00;;;;;;;;;;5001791;28;20042;-71
2023/05/19 02:56:50;;;;;;;7.63;2.80;;;;;;;;;;5012098;28;20026;-72
2023/05/19 02:59:15;;;;;;;8.53;3.17;;;;;;;;;;5010433;28;20398;-71
2023/05/19 03:01:40;;;;;;;9.95;3.20;;;;;;;;;;5010489;28;20030;-71
2023/05/19 03:04:05;;;;;;;7.27;3.07;;;;;;;;;;5003534;28;20034;-70
2023/05/19 03:06:31;;;;;;;8.63;3.17;;;;;;;;;;5006868;28;20018;-70
2023/05/19 03:08:57;;;;;;;7.00;3.03;;;;;;;;;;5007145;28;20109;-70
2023/05/19 03:11:22;;;;;;;7.70;3.40;;;;;;;;;;5000433;28;20431;-71
2023/05/19 03:13:47;;;;;;;9.45;4.10;;;;;;;;;;5002597;28;20812;-70
2023/05/19 03:16:12;;;;;;;8.50;3.38;;;;;;;;;;5008997;28;20481;-71
2023/05/19 03:18:37;;;;;;;8.80;3.35;;;;;;;;;;5003401;28;20018;-71
2023/05/19 03:21:03;;;;;;;8.40;3.65;;;;;;;;;;5005405;28;20057;-70
2023/05/19 03:23:28;;;;;;;9.33;3.50;;;;;;;;;;5001900;28;20030;-70
2023/05/19 03:25:54;;;;;;;7.88;3.42;;;;;;;;;;5010058;28;20432;-71
2023/05/19 03:28:20;;;;;;;10.23;3.50;;;;;;;;;;5007920;28;20273;-71
2023/05/19 03:30:48;;;;;;;8.68;3.42;;;;;;;;;;5008692;28;20564;-70
2023/05/19 03:33:13;;;;;;;9.80;3.38;;;;;;;;;;5009401;28;20404;-70
2023/05/19 03:35:39;;;;;;;8.70;3.08;;;;;;;;;;5004055;28;20024;-70
2023/05/19 03:38:04;;;;;;;7.20;3.20;;;;;;;;;;5001404;28;20030;-72
2023/05/19 03:40:29;;;;;;;10.93;3.38;;;;;;;;;;4999457;28;20018;-71
2023/05/19 03:42:55;;;;;;;7.10;2.97;;;;;;;;;;5006075;28;20052;-71
2023/05/19 03:45:20;;;;;;;10.27;3.55;;;;;;;;;;5005536;28;20026;-72
2023/05/19 03:47:46;;;;;;;6.30;2.88;;;;;;;;;;5007672;28;20032;-71
2023/05/19 03:50:11;;;;;;;6.88;2.92;;;;;;;;;;4999109;28;20033;-71
2023/05/19 03:52:37;;;;;;;7.45;2.85;;;;;;;;;;5002490;28;20026;-71
2023/05/19 03:55:02;;;;;;;6.93;2.97;;;;;;;;;;5001279;28;20548;-71
2023/05/19 03:57:28;;;;;;;11.13;3.40;;;;;;;;;;5004520;28;20023;-70
2023/05/19 03:59:53;;;;;;;8.65;2.97;;;;;;;;;;5006154;28;20097;-71
2023/05/19 04:02:18;;;;;;;10.27;3.47;;;;;;;;;;5007151;28;20111;-71
2023/05/19 04:04:43;;;;;;;8.10;2.88;;;;;;;;;;4998443;28;20024;-71
2023/05/19 04:07:08;;;;;;;8.32;2.85;;;;;;;;;;5001333;28;20225;-71
2023/05/19 04:09:34;;;;;;;7.25;2.70;;;;;;;;;;5002375;28;20453;-70
2023/05/19 04:12:00;;;;;;;6.10;2.70;;;;;;;;;;5005476;28;20030;-71
2023/05/19 04:14:25;;;;;;;6.78;2.50;;;;;;;;;;5001595;28;20025;-71
2023/05/19 04:16:51;;;;;;;7.53;2.97;;;;;;;;;;5004945;28;20426;-71
2023/05/19 04:19:16;;;;;;;6.35;2.70;;;;;;;;;;5003030;28;20022;-72
2023/05/19 04:21:41;;;;;;;8.05;2.88;;;;;;;;;;5003639;28;20489;-70
2023/05/19 04:24:06;;;;;;;7.18;2.90;;;;;;;;;;4997064;28;20065;-71
2023/05/19 04:26:33;;;;;;;6.23;2.77;;;;;;;;;;5005251;28;20014;-71
2023/05/19 04:28:58;;;;;;;6.88;2.47;;;;;;;;;;5009347;28;20021;-70
2023/05/19 04:31:23;;;;;;;6.80;2.40;;;;;;;;;;4999510;28;21325;-70
2023/05/19 04:33:48;;;;;;;9.53;2.60;;;;;;;;;;4989864;28;20367;-70
2023/05/19 04:36:16;;;;;;;5.80;2.50;;;;;;;;;;4991687;28;20469;-71
2023/05/19 04:38:41;;;;;;;6.28;2.75;;;;;;;;;;5003011;28;20072;-71
2023/05/19 04:41:09;;;;;;;8.30;3.30;;;;;;;;;;5002551;28;20429;-70
2023/05/19 04:43:35;;;;;;;8.23;3.05;;;;;;;;;;5000995;28;20022;-71
2023/05/19 04:46:00;;;;;;;6.75;2.90;;;;;;;;;;5010003;28;20067;-70
2023/05/19 04:48:26;;;;;;;8.43;3.13;;;;;;;;;;5003798;28;20027;-71
2023/05/19 04:50:51;;;;;;;7.13;3.00;;;;;;;;;;5003930;28;20017;-71
2023/05/19 04:53:17;;;;;;;5.70;2.20;;;;;;;;;;5001518;28;20014;-71
2023/05/19 04:55:42;;;;;;;6.80;2.73;;;;;;;;;;5004796;28;20723;-71
2023/05/19 04:58:08;;;;;;;7.05;3.10;;;;;;;;;;5006355;28;20029;-71
2023/05/19 05:00:34;;;;;;;6.10;2.78;;;;;;;;;;5007592;28;20052;-71
2023/05/19 05:03:03;;;;;;;8.20;2.70;;;;;;;;;;5002837;28;20434;-72
2023/05/19 05:05:28;;;;;;;6.80;2.80;;;;;;;;;;5009826;28;20049;-71
2023/05/19 05:07:54;;;;;;;5.85;2.60;;;;;;;;;;5003431;28;20097;-70
2023/05/19 05:10:19;;;;;;;6.80;2.70;;;;;;;;;;5004762;28;20045;-71
2023/05/19 05:12:44;;;;;;;6.20;2.93;;;;;;;;;;4999875;28;20508;-71
2023/05/19 05:15:09;;;;;;;6.40;2.40;;;;;;;;;;5007877;28;20481;-70
2023/05/19 05:17:36;;;;;;;7.13;2.67;;;;;;;;;;5005495;28;20081;-71
2023/05/19 05:20:03;;;;;;;;;;;;;;;;;;5004335;28;20026;-70
2023/05/19 05:22:28;;;;;;;7.40;2.42;;;;;;;;;;5000666;28;20007;-71
2023/05/19 05:24:53;;;;;;;7.13;2.53;;;;;;;;;;5004948;28;20165;-71
2023/05/19 05:27:19;;;;;;;6.40;2.37;;;;;;;;;;4999580;28;20251;-70
2023/05/19 05:29:44;;;;;;;6.23;2.43;;;;;;;;;;5002106;28;20519;-71
2023/05/19 05:32:09;;;;;;;6.70;2.50;;;;;;;;;;5002751;28;20115;-71
2023/05/19 05:34:36;;;;;;;5.30;2.30;;;;;;;;;;5006233;28;20026;-71
2023/05/19 05:37:01;;;;;;;7.05;2.40;;;;;;;;;;5008689;28;20030;-71
2023/05/19 05:39:27;;;;;;;7.95;2.80;;;;;;;;;;5007947;28;20498;-71
2023/05/19 05:41:52;;;;;;;7.72;2.30;;;;;;;;;;5007510;28;20029;-70
2023/05/19 05:44:17;;;;;;;6.32;2.35;;;;;;;;;;4998720;28;20030;-72
2023/05/19 05:46:43;;;;;;;5.43;2.23;;;;;;;;;;5000810;28;20030;-71
2023/05/19 05:49:08;;;;;;;6.03;2.40;;;;;;;;;;4992587;28;20073;-72
2023/05/19 05:51:33;;;;;;;5.57;2.37;;;;;;;;;;5007018;28;20046;-71
2023/05/19 05:53:59;;;;;;;7.35;2.70;;;;;;;;;;5008061;28;20868;-71
2023/05/19 05:56:25;;;;;;;8.82;2.70;;;;;;;;;;4999053;28;20061;-72
2023/05/19 05:58:50;;;;;;;5.75;2.30;;;;;;;;;;4997664;28;20057;-69
2023/05/19 06:01:16;;;;;;;6.93;2.77;;;;;;;;;;4999164;28;20088;-70
2023/05/19 06:03:43;;;;;;;5.78;2.30;;;;;;;;;;5002656;28;20033;-70
2023/05/19 06:06:09;;;;;;;7.88;2.53;;;;;;;;;;5001036;28;20758;-71
2023/05/19 06:08:34;;;;;;;5.93;2.20;;;;;;;;;;4998281;28;20019;-71
2023/05/19 06:10:59;;;;;;;6.15;2.25;;;;;;;;;;5001302;28;20042;-70
2023/05/19 06:13:24;;;;;;;7.68;2.30;;;;;;;;;;4995011;28;20029;-70
2023/05/19 06:15:50;;;;;;;6.40;2.20;;;;;;;;;;5007048;28;20661;-71
2023/05/19 06:18:16;;;;;;;5.93;2.30;;;;;;;;;;4993422;28;20048;-70
2023/05/19 06:20:41;;;;;;;5.70;2.20;;;;;;;;;;5002911;28;20897;-70
2023/05/19 06:23:06;;;;;;;5.90;2.30;;;;;;;;;;4995208;28;20021;-70
2023/05/19 06:25:32;;;;;;;6.78;2.42;;;;;;;;;;4995416;28;20065;-70
2023/05/19 06:27:57;;;;;;;5.53;2.50;;;;;;;;;;5000362;28;20031;-70
2023/05/19 06:30:22;;;;;;;5.63;2.00;;;;;;;;;;4991871;28;20030;-69
2023/05/19 06:32:47;;;;;;;6.07;2.60;;;;;;;;;;5006464;28;20041;-70
2023/05/19 06:35:12;;;;;;;5.80;1.98;;;;;;;;;;5001904;28;20025;-70
2023/05/19 06:37:37;;;;;;;7.20;2.47;;;;;;;;;;5001605;28;20076;-70
2023/05/19 06:40:04;;;;;;;5.38;2.22;;;;;;;;;;4993689;28;20133;-70
2023/05/19 06:42:29;;;;;;;6.03;2.67;;;;;;;;;;5006494;28;20018;-70
2023/05/19 06:44:55;;;;;;;7.15;2.35;;;;;;;;;;5004224;28;20528;-69
2023/05/19 06:47:20;;;;;;;6.03;2.50;;;;;;;;;;5000284;28;20014;-70
2023/05/19 06:49:45;;;;;;;6.70;2.60;;;;;;;;;;5005206;28;20022;-70
2023/05/19 06:52:11;;;;;;;7.07;2.70;;;;;;;;;;5006988;28;20069;-70
2023/05/19 06:54:36;;;;;;;6.30;2.50;;;;;;;;;;5002601;28;20025;-70
2023/05/19 06:57:02;;;;;;;5.47;2.60;;;;;;;;;;5008065;28;20061;-70
2023/05/19 06:59:27;;;;;;;6.28;2.40;;;;;;;;;;5001572;28;20019;-70
2023/05/19 07:01:53;;;;;;;7.82;2.72;;;;;;;;;;5003458;28;20026;-69
2023/05/19 07:04:18;;;;;;;6.00;2.67;;;;;;;;;;5008023;28;20485;-70
2023/05/19 07:06:43;;;;;;;10.73;3.40;;;;;;;;;;5007371;28;20048;-70
2023/05/19 07:09:08;;;;;;;6.95;2.90;;;;;;;;;;5007773;28;20017;-70
2023/05/19 07:11:33;;;;;;;9.13;2.70;;;;;;;;;;5008173;28;20060;-70
2023/05/19 07:13:58;;;;;;;6.47;2.70;;;;;;;;;;5008705;28;20444;-70
2023/05/19 07:16:24;;;;;;;4.93;2.40;;;;;;;;;;5001218;28;20101;-69
2023/05/19 07:18:49;;;;;;;6.07;2.57;;;;;;;;;;4991725;28;20351;-70
2023/05/19 07:21:14;;;;;;;7.40;2.60;;;;;;;;;;4992424;28;20432;-69
2023/05/19 07:23:39;;;;;;;8.10;2.78;;;;;;;;;;4992492;28;20176;-69
2023/05/19 07:26:05;;;;;;;10.73;2.95;;;;;;;;;;4992282;28;20030;-70
2023/05/19 07:28:30;;;;;;;7.10;2.67;;;;;;;;;;4997053;28;20473;-70
2023/05/19 07:30:55;;;;;;;6.20;2.57;;;;;;;;;;4999813;28;20023;-70
2023/05/19 07:33:20;;;;;;;8.50;3.08;;;;;;;;;;4991294;28;20038;-70
2023/05/19 07:35:46;;;;;;;8.07;3.17;;;;;;;;;;5007303;28;20030;-70
2023/05/19 07:38:11;;;;;;;7.20;2.80;;;;;;;;;;5015352;28;20014;-70
2023/05/19 07:40:36;;;;;;;5.63;2.63;;;;;;;;;;5012176;28;20018;-69
2023/05/19 07:43:01;;;;;;;6.32;2.42;;;;;;;;;;5003954;28;20434;-70
2023/05/19 07:45:27;;;;;;;7.82;2.70;;;;;;;;;;5000404;28;20042;-69
2023/05/19 07:47:52;;;;;;;6.43;2.85;;;;;;;;;;4991709;28;20033;-70
2023/05/19 07:50:17;;;;;;;6.22;2.33;;;;;;;;;;4991571;28;20100;-70
2023/05/19 07:52:43;;;;;;;7.30;2.50;;;;;;;;;;4991953;28;20030;-69
2023/05/19 07:55:08;;;;;;;6.43;2.47;;;;;;;;;;4991993;28;20487;-71
2023/05/19 07:57:33;;;;;;;7.73;2.67;;;;;;;;;;4995570;28;20013;-69
2023/05/19 07:59:58;;;;;;;5.72;2.70;;;;;;;;;;4995388;28;20489;-71
2023/05/19 08:02:23;;;;;;;5.72;2.13;;;;;;;;;;5006502;28;20210;-70
2023/05/19 08:04:48;;;;;;;7.63;2.80;;;;;;;;;;4991786;28;20113;-69
2023/05/19 08:07:13;;;;;;;7.35;2.78;;;;;;;;;;4991572;28;20386;-69
2023/05/19 08:09:39;;;;;;;5.63;2.33;;;;;;;;;;4991168;28;20022;-69
2023/05/19 08:12:04;;;;;;;5.90;2.20;;;;;;;;;;4998598;28;20110;-71
2023/05/19 08:14:32;;;;;;;9.32;2.25;;;;;;;;;;4999532;28;20508;-70
2023/05/19 08:16:57;;;;;;;8.05;2.15;;;;;;;;;;4991279;28;20097;-69
2023/05/19 08:19:22;;;;;;;7.55;2.22;;;;;;;;;;4991125;28;20505;-69
2023/05/19 08:21:48;;;;;;;6.93;1.88;;;;;;;;;;4991415;28;20033;-70
2023/05/19 08:24:13;;;;;;;5.70;2.25;;;;;;;;;;4990432;28;20015;-70
2023/05/19 08:26:39;;;;;;;6.77;2.00;;;;;;;;;;4995569;28;20105;-70
2023/05/19 08:29:04;;;;;;;5.65;2.10;;;;;;;;;;5000138;28;20026;-70
2023/05/19 08:31:29;;;;;;;4.57;1.90;;;;;;;;;;4999126;28;20088;-70
2023/05/19 08:33:54;;;;;;;9.40;2.45;;;;;;;;;;4991097;28;20019;-69
2023/05/19 08:36:20;;;;;;;7.18;2.40;;;;;;;;;;4991511;28;20027;-70
2023/05/19 08:38:45;;;;;;;9.10;2.78;;;;;;;;;;5002642;28;20512;-70
2023/05/19 08:41:11;;;;;;;9.20;2.58;;;;;;;;;;5010687;28;20068;-70
2023/05/19 08:43:36;;;;;;;5.63;2.40;;;;;;;;;;5006091;28;20118;-70
2023/05/19 08:46:02;;;;;;;8.53;2.50;;;;;;;;;;5001141;28;20013;-69
2023/05/19 08:48:28;;;;;;;4.95;2.20;;;;;;;;;;4990924;28;20125;-70
2023/05/19 08:51:10;;;;;;;6.40;2.47;;;;;;;;;;4991076;28;20106;-70
2023/05/19 08:53:38;;;;;;;5.03;1.95;;;;;;;;;;4991323;28;20023;-70
2023/05/19 08:56:09;;;;;;;8.00;2.85;;;;;;;;;;4991450;28;20109;-70
2023/05/19 08:58:34;;;;;;;6.75;2.30;;;;;;;;;;4992067;28;20450;-70
2023/05/19 09:01:00;;;;;;;7.82;2.65;;;;;;;;;;5002530;28;20022;-70
2023/05/19 09:03:27;;;;;;;6.87;2.53;;;;;;;;;;4992365;28;20022;-70
2023/05/19 09:05:52;;;;;;;9.43;3.80;;;;;;;;;;4991162;28;20088;-70
2023/05/19 09:08:17;;;;;;;9.20;2.47;;;;;;;;;;4990692;28;20482;-69
2023/05/19 09:10:43;;;;;;;7.70;2.23;;;;;;;;;;4990954;28;20093;-70
2023/05/19 09:13:08;;;;;;;7.87;2.10;;;;;;;;;;4990612;28;20436;-71
2023/05/19 09:15:35;;;;;;;5.93;2.00;;;;;;;;;;5002187;28;20018;-70
2023/05/19 09:18:10;;;;;;;6.18;2.00;;;;;;;;;;4994982;28;20097;-70
2023/05/19 09:20:37;;;;;;;4.82;2.20;;;;;;;;;;4998915;28;20013;-70
2023/05/19 09:23:02;;;;;;;7.18;2.10;;;;;;;;;;5001982;28;20080;-70
2023/05/19 09:25:27;;;;;;;5.60;1.65;;;;;;;;;;5010421;28;20473;-70
2023/05/19 09:27:53;;;;;;;7.47;2.20;;;;;;;;;;5010283;28;20022;-70
2023/05/19 09:30:18;;;;;;;7.10;2.08;;;;;;;;;;5009613;28;20381;-70
2023/05/19 09:32:44;;;;;;;6.00;2.00;;;;;;;;;;5010353;28;20481;-70
2023/05/19 09:35:10;;;;;;;7.53;2.08;;;;;;;;;;5009291;28;20029;-70
2023/05/19 09:37:38;;;;;;;7.45;3.17;;;;;;;;;;4999326;28;20096;-70
2023/05/19 09:40:04;;;;;;;5.60;2.10;;;;;;;;;;5013528;28;20022;-70
2023/05/19 09:42:29;;;;;;;5.78;2.17;;;;;;;;;;5013576;28;20031;-70
2023/05/19 09:45:01;;;;;;;6.75;2.22;;;;;;;;;;5013985;28;20037;-70
2023/05/19 09:47:26;;;;;;;6.10;2.30;;;;;;;;;;5013606;28;20042;-69
2023/05/19 09:49:52;;;;;;;6.68;2.10;;;;;;;;;;5004253;28;20064;-70
2023/05/19 09:52:17;;;;;;;5.45;2.20;;;;;;;;;;5006820;28;20033;-69
2023/05/19 09:54:43;;;;;;;5.43;2.20;;;;;;;;;;4994015;28;20067;-70
2023/05/19 09:57:09;;;;;;;6.38;2.60;;;;;;;;;;5001874;28;20038;-70
2023/05/19 09:59:34;;;;;;;7.57;2.53;;;;;;;;;;5001408;28;20014;-69
2023/05/19 10:02:00;;;;;;;7.50;2.25;;;;;;;;;;4994016;28;20476;-70
2023/05/19 10:04:26;;;;;;;6.13;2.60;;;;;;;;;;4995242;28;20033;-70
2023/05/19 10:06:52;;;;;;;6.95;2.08;;;;;;;;;;5005002;28;20423;-71
2023/05/19 10:09:24;;;;;;;8.75;2.45;;;;;;;;;;4995034;28;20024;-70
2023/05/19 10:11:54;;;;;;;7.25;2.22;;;;;;;;;;4994963;28;20568;-70
2023/05/19 10:14:25;;;;;;;5.22;2.17;;;;;;;;;;5001423;28;20033;-70
2023/05/19 10:16:51;;;;;;;8.20;2.30;;;;;;;;;;5001893;28;20049;-70
2023/05/19 10:19:19;;;;;;;5.40;1.98;;;;;;;;;;4993180;28;20035;-71
2023/05/19 10:21:44;;;;;;;6.55;2.25;;;;;;;;;;4993397;28;20014;-69
2023/05/19 10:24:10;;;;;;;4.97;2.03;;;;;;;;;;4993805;28;20030;-69
2023/05/19 10:26:35;;;;;;;5.53;2.30;;;;;;;;;;4993792;28;20022;-71
2023/05/19 10:29:01;;;;;;;7.00;2.20;;;;;;;;;;4993537;28;20101;-70
2023/05/19 10:31:26;;;;;;;6.50;2.38;;;;;;;;;;5000953;28;20080;-71
2023/05/19 10:33:57;;;;;;;6.10;2.30;;;;;;;;;;4993326;28;20018;-70
2023/05/19 10:36:43;;;;;;;8.27;2.17;;;;;;;;;;5008594;28;20022;-70
2023/05/19 10:39:27;;;;;;;6.80;2.25;;;;;;;;;;5015546;28;20097;-70
2023/05/19 10:42:01;;;;;;;5.60;2.10;;;;;;;;;;5013274;28;20022;-69
2023/05/19 10:44:39;;;;;;;5.13;2.15;;;;;;;;;;5015002;28;20033;-70
2023/05/19 10:47:07;;;;;;;7.75;2.72;;;;;;;;;;4996081;28;20028;-69
2023/05/19 10:49:35;;;;;;;5.40;2.05;;;;;;;;;;4992766;28;20097;-69
2023/05/19 10:52:00;;;;;;;6.63;2.03;;;;;;;;;;4993069;28;20482;-70
2023/05/19 10:54:39;;;;;;;5.50;1.90;;;;;;;;;;4992941;28;20037;-70
2023/05/19 10:57:05;;;;;;;6.55;2.05;;;;;;;;;;4993899;28;20038;-69
2023/05/19 10:59:32;;;;;;;6.00;2.10;;;;;;;;;;5003521;28;20022;-69
2023/05/19 11:02:01;;;;;;;6.55;2.20;;;;;;;;;;5000377;28;20027;-70
2023/05/19 11:04:39;;;;;;;6.18;1.98;;;;;;;;;;5001128;28;20018;-69
2023/05/19 11:07:07;;;;;;;6.13;2.15;;;;;;;;;;4999232;28;20015;-69
2023/05/19 11:09:38;;;;;;;7.10;2.03;;;;;;;;;;5005942;28;20057;-69
2023/05/19 11:12:04;;;;;;;5.63;1.92;;;;;;;;;;5005447;28;20538;-69
2023/05/19 11:14:30;;;;;;;7.90;2.60;;;;;;;;;;4999494;28;20021;-68
2023/05/19 11:16:56;;;;;;;6.00;2.10;;;;;;;;;;4997053;28;20475;-70
2023/05/19 11:19:21;;;;;;;;;;;;;;;;;;4992820;28;20025;-70
2023/05/19 11:21:47;;;;;;;4.70;2.05;;;;;;;;;;4992953;28;19905;-69
2023/05/19 11:24:35;;;;;;;5.07;2.03;;;;;;;;;;4996581;28;20032;-69
2023/05/19 11:27:19;;;;;;;6.25;2.35;;;;;;;;;;5002129;28;20029;-71
2023/05/19 11:29:44;;;;;;;6.20;1.90;;;;;;;;;;5005372;28;20109;-68
2023/05/19 11:32:10;;;;;;;5.80;2.20;;;;;;;;;;5010728;28;20331;-69
2023/05/19 11:34:36;;;;;;;5.85;2.10;;;;;;;;;;4999386;28;20018;-68
2023/05/19 11:37:01;;;;;;;5.05;2.00;;;;;;;;;;4999822;28;20041;-68
2023/05/19 11:39:27;;;;;;;4.87;1.80;;;;;;;;;;4991652;28;20052;-69
2023/05/19 11:41:54;;;;;;;5.20;1.95;;;;;;;;;;4994444;28;20026;-70
2023/05/19 11:44:19;;;;;;;5.45;2.15;;;;;;;;;;5001219;28;20386;-70
2023/05/19 11:46:44;;;;;;;4.55;1.77;;;;;;;;;;4997987;28;20029;-69
2023/05/19 11:49:09;;;;;;;8.50;2.10;;;;;;;;;;4991708;28;20393;-69
2023/05/19 11:51:35;;;;;;;6.37;2.13;;;;;;;;;;4991822;28;20049;-69
2023/05/19 11:54:01;;;;;;;5.37;2.00;;;;;;;;;;4992164;28;20033;-69
2023/05/19 11:56:32;;;;;;;5.97;2.00;;;;;;;;;;4991809;28;20022;-69
2023/05/19 11:58:57;;;;;;;6.15;2.08;;;;;;;;;;4996294;28;20032;-69
2023/05/19 12:01:24;;;;;;;5.50;1.95;;;;;;;;;;4999522;28;20026;-69
2023/05/19 12:03:49;;;;;;;4.97;2.00;;;;;;;;;;4991868;28;20054;-69
2023/05/19 12:06:16;;;;;;;5.40;2.10;;;;;;;;;;5004190;28;20438;-70
2023/05/19 12:08:41;;;;;;;6.05;2.17;;;;;;;;;;5010919;28;20029;-70
2023/05/19 12:11:06;;;;;;;6.63;2.17;;;;;;;;;;5011574;28;20421;-69
2023/05/19 12:13:32;;;;;;;6.63;2.03;;;;;;;;;;5007861;28;20040;-70
2023/05/19 12:16:00;;;;;;;6.90;1.90;;;;;;;;;;5001249;28;20059;-70
2023/05/19 12:18:27;;;;;;;11.02;3.08;;;;;;;;;;5006617;28;20026;-70
2023/05/19 12:20:52;;;;;;;6.70;2.80;;;;;;;;;;5003755;28;20041;-70
2023/05/19 12:23:18;;;;;;;7.53;2.20;;;;;;;;;;5010485;28;20520;-70
2023/05/19 12:25:43;;;;;;;6.28;2.03;;;;;;;;;;5010000;28;20026;-69
2023/05/19 12:28:08;;;;;;;5.30;2.10;;;;;;;;;;5009573;28;20500;-70
2023/05/19 12:30:33;;;;;;;7.47;2.70;;;;;;;;;;5009468;28;20058;-70
2023/05/19 12:33:00;;;;;;;5.67;2.03;;;;;;;;;;5003070;28;20034;-70
2023/05/19 12:35:26;;;;;;;5.40;2.30;;;;;;;;;;5009862;28;20084;-69
2023/05/19 12:37:51;;;;;;;6.63;2.40;;;;;;;;;;5009007;28;20018;-71
2023/05/19 12:40:17;;;;;;;5.50;1.93;;;;;;;;;;5002535;28;20398;-69
2023/05/19 12:42:45;;;;;;;10.77;2.40;;;;;;;;;;5009131;28;20072;-70
2023/05/19 12:45:10;;;;;;;8.38;2.53;;;;;;;;;;5010056;28;20651;-69
2023/05/19 12:47:36;;;;;;;6.53;2.58;;;;;;;;;;5009177;28;20505;-69
2023/05/19 12:50:03;;;;;;;7.93;2.43;;;;;;;;;;5012032;28;20029;-70
2023/05/19 12:52:29;;;;;;;6.18;2.40;;;;;;;;;;5002130;28;20030;-70
2023/05/19 12:54:58;;;;;;;5.15;2.30;;;;;;;;;;4998539;28;20544;-70
2023/05/19 12:57:24;;;;;;;6.85;2.63;;;;;;;;;;5004744;28;20409;-70
2023/05/19 12:59:49;;;;;;;5.32;2.30;;;;;;;;;;5000132;28;20088;-70
2023/05/19 13:02:15;;;;;;;6.30;2.63;;;;;;;;;;5008861;28;20042;-69
2023/05/19 13:04:40;;;;;;;8.02;2.70;;;;;;;;;;5010566;28;20026;-72
2023/05/19 13:07:06;;;;;;;8.15;2.67;;;;;;;;;;5009775;28;20450;-70
2023/05/19 13:09:34;;;;;;;5.68;2.42;;;;;;;;;;5009975;28;20042;-70
2023/05/19 13:11:59;;;;;;;8.10;2.28;;;;;;;;;;5008994;28;20034;-69
2023/05/19 13:14:24;;;;;;;7.33;2.70;;;;;;;;;;5008554;28;20026;-69
2023/05/19 13:16:49;;;;;;;5.55;2.40;;;;;;;;;;5017650;28;20029;-70
2023/05/19 13:19:18;;;;;;;5.97;2.73;;;;;;;;;;5018653;28;20022;-71
2023/05/19 13:21:46;;;;;;;6.18;2.50;;;;;;;;;;5012843;28;20025;-70
2023/05/19 13:24:11;;;;;;;7.50;2.88;;;;;;;;;;5015148;28;20026;-71
2023/05/19 13:26:36;;;;;;;7.63;3.10;;;;;;;;;;5013526;28;20512;-69
2023/05/19 13:29:01;;;;;;;6.93;3.03;;;;;;;;;;5006279;28;20453;-70
2023/05/19 13:31:27;;;;;;;6.10;2.45;;;;;;;;;;5008477;28;20030;-70
2023/05/19 13:33:52;;;;;;;7.43;2.60;;;;;;;;;;5014291;28;20028;-70
2023/05/19 13:36:17;;;;;;;6.55;2.42;;;;;;;;;;5015218;28;20037;-70
2023/05/19 13:38:42;;;;;;;6.03;2.60;;;;;;;;;;5015880;28;20014;-70
2023/05/19 13:41:08;;;;;;;6.50;2.33;;;;;;;;;;5015572;28;20030;-70
2023/05/19 13:43:33;;;;;;;6.97;2.70;;;;;;;;;;5011940;28;20020;-70
2023/05/19 13:45:58;;;;;;;6.63;2.90;;;;;;;;;;5019059;28;20045;-69
2023/05/19 13:48:23;;;;;;;7.63;2.85;;;;;;;;;;5021615;28;20021;-70
2023/05/19 13:50:51;;;;;;;6.47;2.83;;;;;;;;;;5013227;28;20092;-70
2023/05/19 13:53:16;;;;;;;7.53;3.03;;;;;;;;;;5013803;28;20041;-71
2023/05/19 13:55:41;;;;;;;8.23;3.38;;;;;;;;;;5013316;28;20018;-71
2023/05/19 13:58:09;;;;;;;6.70;2.90;;;;;;;;;;5010172;28;20497;-70
2023/05/19 14:00:35;;;;;;;6.10;2.90;;;;;;;;;;5004405;28;20018;-70
2023/05/19 14:03:00;;;;;;;11.35;3.22;;;;;;;;;;5013511;28;20133;-70
2023/05/19 14:05:27;;;;;;;7.80;3.40;;;;;;;;;;5012990;28;20030;-70
2023/05/19 14:07:53;;;;;;;6.50;3.10;;;;;;;;;;5016812;28;20033;-69
2023/05/19 14:10:18;;;;;;;6.75;3.20;;;;;;;;;;5012834;28;20018;-72
2023/05/19 14:12:43;;;;;;;6.47;3.28;;;;;;;;;;5004216;28;20026;-69
2023/05/19 14:15:09;;;;;;;8.90;3.60;;;;;;;;;;4996707;28;20475;-71
2023/05/19 14:17:34;;;;;;;6.43;3.00;;;;;;;;;;5002921;28;20029;-70
2023/05/19 14:19:59;;;;;;;6.22;3.13;;;;;;;;;;5004718;28;20030;-70
2023/05/19 14:22:24;;;;;;;6.83;3.30;;;;;;;;;;5011749;28;20485;-70
2023/05/19 14:24:49;;;;;;;7.47;3.53;;;;;;;;;;5013276;28;20049;-71
2023/05/19 14:27:14;;;;;;;6.37;3.60;;;;;;;;;;5013223;28;20014;-69
2023/05/19 14:29:40;;;;;;;7.72;4.00;;;;;;;;;;5009386;28;20011;-69
2023/05/19 14:32:06;;;;;;;7.47;3.28;;;;;;;;;;4996267;28;20068;-70
2023/05/19 14:34:31;;;;;;;8.73;4.75;;;;;;;;;;5001153;28;20102;-70
2023/05/19 14:36:56;;;;;;;9.30;4.17;;;;;;;;;;4993585;28;20025;-70
2023/05/19 14:39:21;;;;;;;7.43;4.27;;;;;;;;;;4991472;28;20022;-70